Time;durP1;ratioP1;P1;durP2;ratioP2;P2;SDS_P1;SDS_P2;PMS_P1;PMS_P2;Temp;Humidity;BMP_temperature;BMP_pressure;BME280_temperature;BME280_humidity;BME280_pressure;Samples;Min_cycle;Max_cycle;Signal;HPM_P1;HPM_P2
2022/03/03 00:00:29;;;;;;;61.25;38.42;;;;;;;;;;4998592;28;20428;-87
2022/03/03 00:02:57;;;;;;;63.50;40.27;;;;;;;;;;4988799;28;20534;-83
2022/03/03 00:05:23;;;;;;;60.30;39.70;;;;;;;;;;4994159;28;20450;-86
2022/03/03 00:07:50;;;;;;;63.20;40.70;;;;;;;;;;4992111;28;20434;-85
2022/03/03 00:10:16;;;;;;;63.80;41.58;;;;;;;;;;5004579;28;21007;-84
2022/03/03 00:12:42;;;;;;;67.80;40.43;;;;;;;;;;4992889;28;20513;-85
2022/03/03 00:15:09;;;;;;;68.05;41.17;;;;;;;;;;4994175;28;20516;-84
2022/03/03 00:17:36;;;;;;;61.13;40.22;;;;;;;;;;5004379;28;20432;-84
2022/03/03 00:20:04;;;;;;;61.13;39.53;;;;;;;;;;4995529;28;20420;-85
2022/03/03 00:22:30;;;;;;;65.35;41.38;;;;;;;;;;4997274;28;20431;-85
2022/03/03 00:24:57;;;;;;;65.55;40.72;;;;;;;;;;5004798;28;20437;-84
2022/03/03 00:27:23;;;;;;;65.65;40.85;;;;;;;;;;5009025;23;20916;-84
2022/03/03 00:29:49;;;;;;;65.82;40.72;;;;;;;;;;4991713;28;20449;-84
2022/03/03 00:32:16;;;;;;;64.18;41.72;;;;;;;;;;4994077;28;20430;-84
2022/03/03 00:34:42;;;;;;;62.08;39.53;;;;;;;;;;4995080;28;20984;-82
2022/03/03 00:37:09;;;;;;;64.15;41.17;;;;;;;;;;4987900;28;20787;-83
2022/03/03 00:39:36;;;;;;;64.75;40.83;;;;;;;;;;4984433;28;20418;-84
2022/03/03 00:42:02;;;;;;;64.30;40.35;;;;;;;;;;4991928;28;20497;-84
2022/03/03 00:44:28;;;;;;;63.15;41.40;;;;;;;;;;4986951;28;20446;-84
2022/03/03 00:46:54;;;;;;;66.00;41.03;;;;;;;;;;4983274;28;20416;-83
2022/03/03 00:49:21;;;;;;;60.60;39.80;;;;;;;;;;4982287;28;20434;-84
2022/03/03 00:51:47;;;;;;;62.15;39.15;;;;;;;;;;4982402;28;20414;-83
2022/03/03 00:54:15;;;;;;;65.40;41.00;;;;;;;;;;4981268;28;20426;-84
2022/03/03 00:56:41;;;;;;;64.03;40.95;;;;;;;;;;4981802;28;20435;-84
2022/03/03 00:59:07;;;;;;;69.93;42.00;;;;;;;;;;4983357;28;20433;-83
2022/03/03 01:01:33;;;;;;;64.78;41.47;;;;;;;;;;4985860;28;20429;-84
2022/03/03 01:04:00;;;;;;;74.00;42.80;;;;;;;;;;4982932;28;20450;-83
2022/03/03 01:06:26;;;;;;;71.45;43.08;;;;;;;;;;4980727;28;20918;-84
2022/03/03 01:08:53;;;;;;;72.07;44.63;;;;;;;;;;4984682;28;20519;-84
2022/03/03 01:11:20;;;;;;;72.45;42.85;;;;;;;;;;4982525;28;20912;-84
2022/03/03 01:13:47;;;;;;;65.15;41.65;;;;;;;;;;4989234;28;20426;-84
2022/03/03 01:16:13;;;;;;;67.93;41.05;;;;;;;;;;4990162;28;20423;-83
2022/03/03 01:18:39;;;;;;;65.93;40.83;;;;;;;;;;4988713;28;20430;-83
2022/03/03 01:21:05;;;;;;;65.47;39.70;;;;;;;;;;4988335;28;20490;-84
2022/03/03 01:23:32;;;;;;;64.13;41.05;;;;;;;;;;4991529;28;20438;-84
2022/03/03 01:25:58;;;;;;;65.18;41.03;;;;;;;;;;4989412;28;20836;-84
2022/03/03 01:28:25;;;;;;;63.75;40.75;;;;;;;;;;4987711;28;20852;-83
2022/03/03 01:30:52;;;;;;;66.63;41.03;;;;;;;;;;4988429;28;20493;-83
2022/03/03 01:33:18;;;;;;;60.67;39.53;;;;;;;;;;4988746;28;20434;-83
2022/03/03 01:35:44;;;;;;;65.53;40.50;;;;;;;;;;4987118;28;20456;-83
2022/03/03 01:38:10;;;;;;;67.53;39.70;;;;;;;;;;4988631;28;20481;-83
2022/03/03 01:40:37;;;;;;;67.13;40.35;;;;;;;;;;4986853;28;20440;-84
2022/03/03 01:43:03;;;;;;;68.22;40.78;;;;;;;;;;4990192;28;20425;-83
2022/03/03 01:45:31;;;;;;;72.85;43.35;;;;;;;;;;4988092;28;20445;-83
2022/03/03 01:47:58;;;;;;;68.68;40.72;;;;;;;;;;4989532;28;20431;-83
2022/03/03 01:50:24;;;;;;;62.50;40.20;;;;;;;;;;4994286;28;20502;-84
2022/03/03 01:52:50;;;;;;;62.03;39.47;;;;;;;;;;4992565;28;20426;-83
2022/03/03 01:55:17;;;;;;;65.13;40.63;;;;;;;;;;4994871;28;20422;-83
2022/03/03 01:57:43;;;;;;;70.63;42.10;;;;;;;;;;4992462;28;20433;-82
2022/03/03 02:00:10;;;;;;;76.53;45.25;;;;;;;;;;4993945;28;20461;-83
2022/03/03 02:02:38;;;;;;;69.45;42.42;;;;;;;;;;4991300;28;20522;-83
2022/03/03 02:05:04;;;;;;;75.00;44.83;;;;;;;;;;4994246;28;20469;-83
2022/03/03 02:07:31;;;;;;;73.35;46.90;;;;;;;;;;4992914;28;20461;-83
2022/03/03 02:09:57;;;;;;;72.60;44.38;;;;;;;;;;4987946;28;20436;-83
2022/03/03 02:12:23;;;;;;;73.43;43.97;;;;;;;;;;4986962;28;20430;-83
2022/03/03 02:14:50;;;;;;;71.47;42.55;;;;;;;;;;4992413;28;20990;-83
2022/03/03 02:17:17;;;;;;;73.20;43.07;;;;;;;;;;4989580;28;20812;-83
2022/03/03 02:19:44;;;;;;;72.00;41.80;;;;;;;;;;4993580;28;20418;-82
2022/03/03 02:22:12;;;;;;;71.63;42.38;;;;;;;;;;4995453;28;20418;-84
2022/03/03 02:24:39;;;;;;;70.25;43.83;;;;;;;;;;4997323;28;20418;-84
2022/03/03 02:27:06;;;;;;;69.85;41.80;;;;;;;;;;4992133;28;20465;-83
2022/03/03 02:29:32;;;;;;;65.33;41.50;;;;;;;;;;4993645;28;20924;-84
2022/03/03 02:31:59;;;;;;;72.90;43.05;;;;;;;;;;4992577;28;20430;-83
2022/03/03 02:34:25;;;;;;;69.53;42.00;;;;;;;;;;4992063;28;20784;-83
2022/03/03 02:36:51;;;;;;;71.07;42.78;;;;;;;;;;4995000;28;20484;-83
2022/03/03 02:39:19;;;;;;;70.88;43.00;;;;;;;;;;4995478;28;20449;-83
2022/03/03 02:41:45;;;;;;;70.50;41.60;;;;;;;;;;4993422;28;20422;-83
2022/03/03 02:44:11;;;;;;;73.43;43.92;;;;;;;;;;4996314;28;20414;-83
2022/03/03 02:46:38;;;;;;;74.17;43.97;;;;;;;;;;4993774;28;20500;-83
2022/03/03 02:49:05;;;;;;;77.97;44.10;;;;;;;;;;4991301;28;20444;-83
2022/03/03 02:51:31;;;;;;;72.22;43.50;;;;;;;;;;4993990;28;20505;-84
2022/03/03 02:53:58;;;;;;;74.40;45.10;;;;;;;;;;4992780;28;21060;-83
2022/03/03 02:56:25;;;;;;;76.57;45.83;;;;;;;;;;4994602;28;20425;-83
2022/03/03 02:58:51;;;;;;;86.35;49.40;;;;;;;;;;4994531;28;20418;-83
2022/03/03 03:01:17;;;;;;;82.73;46.97;;;;;;;;;;4994894;28;20421;-83
2022/03/03 03:03:43;;;;;;;82.88;47.03;;;;;;;;;;4993503;28;20431;-83
2022/03/03 03:06:12;;;;;;;79.28;47.08;;;;;;;;;;4995532;28;20430;-84
2022/03/03 03:08:38;;;;;;;80.03;47.60;;;;;;;;;;4994324;28;20430;-83
2022/03/03 03:11:05;;;;;;;84.97;48.22;;;;;;;;;;4994764;28;20458;-83
2022/03/03 03:13:32;;;;;;;95.22;51.38;;;;;;;;;;4989622;28;20442;-83
2022/03/03 03:15:58;;;;;;;91.35;51.60;;;;;;;;;;4994007;28;20442;-83
2022/03/03 03:18:25;;;;;;;88.95;52.80;;;;;;;;;;4993627;28;20426;-83
2022/03/03 03:20:52;;;;;;;96.25;53.13;;;;;;;;;;4986276;28;20425;-84
2022/03/03 03:23:19;;;;;;;88.35;49.70;;;;;;;;;;4995656;28;20438;-81
2022/03/03 03:25:46;;;;;;;94.47;50.90;;;;;;;;;;4994829;28;20832;-82
2022/03/03 03:28:12;;;;;;;101.68;53.58;;;;;;;;;;4994107;28;20461;-83
2022/03/03 03:30:40;;;;;;;92.63;53.42;;;;;;;;;;4992385;28;20468;-83
2022/03/03 03:33:07;;;;;;;94.50;53.08;;;;;;;;;;4991464;28;20799;-83
2022/03/03 03:35:33;;;;;;;92.90;51.60;;;;;;;;;;4993455;28;20438;-83
2022/03/03 03:38:00;;;;;;;93.13;51.15;;;;;;;;;;4992723;28;20430;-81
2022/03/03 03:40:26;;;;;;;100.72;54.92;;;;;;;;;;4993911;28;20425;-83
2022/03/03 03:42:52;;;;;;;93.63;51.22;;;;;;;;;;4994181;28;20430;-83
2022/03/03 03:45:19;;;;;;;98.63;52.97;;;;;;;;;;4994128;28;20514;-82
2022/03/03 03:47:46;;;;;;;89.30;50.88;;;;;;;;;;4997180;28;20421;-82
2022/03/03 03:50:14;;;;;;;96.72;51.63;;;;;;;;;;4992731;28;20453;-82
2022/03/03 03:52:40;;;;;;;91.22;52.40;;;;;;;;;;4992614;28;20466;-84
2022/03/03 03:55:08;;;;;;;94.13;51.13;;;;;;;;;;4994778;28;20426;-84
2022/03/03 03:57:35;;;;;;;86.82;49.15;;;;;;;;;;4991981;28;20422;-83
2022/03/03 04:00:02;;;;;;;92.80;52.67;;;;;;;;;;4991360;28;20796;-83
2022/03/03 04:02:28;;;;;;;87.47;50.90;;;;;;;;;;4992296;28;20439;-83
2022/03/03 04:04:56;;;;;;;89.50;48.65;;;;;;;;;;4992855;28;20425;-82
2022/03/03 04:07:22;;;;;;;89.88;49.58;;;;;;;;;;4990479;28;20422;-83
2022/03/03 04:09:48;;;;;;;88.88;50.50;;;;;;;;;;4991963;28;20437;-83
2022/03/03 04:12:15;;;;;;;91.45;51.03;;;;;;;;;;4992771;28;20967;-83
2022/03/03 04:14:41;;;;;;;89.97;50.08;;;;;;;;;;4993440;28;20430;-83
2022/03/03 04:17:07;;;;;;;91.63;51.17;;;;;;;;;;4985250;28;20426;-83
2022/03/03 04:19:34;;;;;;;88.32;50.28;;;;;;;;;;4992418;28;20506;-83
2022/03/03 04:22:01;;;;;;;80.77;49.60;;;;;;;;;;4990304;28;20449;-83
2022/03/03 04:24:28;;;;;;;79.85;46.53;;;;;;;;;;4993648;28;20533;-83
2022/03/03 04:26:56;;;;;;;88.72;51.13;;;;;;;;;;4988774;28;20413;-83
2022/03/03 04:29:22;;;;;;;88.10;47.95;;;;;;;;;;4986751;28;20465;-83
2022/03/03 04:31:51;;;;;;;81.85;47.00;;;;;;;;;;4991146;28;20414;-83
2022/03/03 04:34:17;;;;;;;90.82;49.85;;;;;;;;;;4989465;28;21242;-83
2022/03/03 04:36:43;;;;;;;83.53;48.50;;;;;;;;;;4990725;28;20468;-83
2022/03/03 04:39:11;;;;;;;87.95;48.65;;;;;;;;;;4992081;28;20978;-83
2022/03/03 04:41:37;;;;;;;83.55;46.85;;;;;;;;;;4989536;28;20851;-83
2022/03/03 04:44:03;;;;;;;84.47;49.15;;;;;;;;;;4992356;28;20808;-83
2022/03/03 04:46:29;;;;;;;83.68;48.67;;;;;;;;;;4991272;28;20430;-84
2022/03/03 04:48:59;;;;;;;88.63;50.83;;;;;;;;;;4991286;28;20426;-83
2022/03/03 04:51:25;;;;;;;84.30;48.30;;;;;;;;;;4993957;28;20444;-84
2022/03/03 04:53:52;;;;;;;90.03;50.53;;;;;;;;;;4997097;28;20425;-83
2022/03/03 04:56:19;;;;;;;92.80;50.47;;;;;;;;;;4990928;28;20418;-84
2022/03/03 04:58:45;;;;;;;88.97;49.22;;;;;;;;;;4988791;28;20429;-82
2022/03/03 05:01:12;;;;;;;94.03;51.00;;;;;;;;;;4989459;28;20592;-83
2022/03/03 05:03:38;;;;;;;90.05;51.25;;;;;;;;;;4992122;28;20932;-83
2022/03/03 05:06:04;;;;;;;100.20;54.75;;;;;;;;;;4991926;28;20418;-84
2022/03/03 05:08:31;;;;;;;97.88;54.50;;;;;;;;;;4991420;28;20423;-82
2022/03/03 05:10:57;;;;;;;107.90;55.70;;;;;;;;;;4986847;28;20430;-83
2022/03/03 05:13:24;;;;;;;106.47;57.15;;;;;;;;;;4991300;28;20431;-83
2022/03/03 05:15:51;;;;;;;111.53;60.70;;;;;;;;;;4989213;28;20916;-83
2022/03/03 05:18:18;;;;;;;103.13;57.05;;;;;;;;;;4985125;28;20414;-83
2022/03/03 05:20:44;;;;;;;112.63;58.45;;;;;;;;;;4991845;28;20414;-83
2022/03/03 05:23:10;;;;;;;114.53;60.80;;;;;;;;;;4991519;28;20418;-83
2022/03/03 05:25:36;;;;;;;117.40;65.85;;;;;;;;;;4990580;28;20426;-82
2022/03/03 05:28:03;;;;;;;115.25;60.05;;;;;;;;;;4984738;28;20438;-84
2022/03/03 05:30:30;;;;;;;128.15;65.32;;;;;;;;;;4990049;28;20441;-83
2022/03/03 05:32:57;;;;;;;128.35;65.78;;;;;;;;;;4978528;28;20428;-83
2022/03/03 05:35:24;;;;;;;118.10;63.88;;;;;;;;;;4989523;28;20805;-82
2022/03/03 05:37:50;;;;;;;119.40;64.75;;;;;;;;;;4979194;28;20415;-83
2022/03/03 05:40:17;;;;;;;108.72;60.35;;;;;;;;;;4984358;28;20469;-83
2022/03/03 05:42:44;;;;;;;112.90;60.50;;;;;;;;;;4989341;28;20426;-82
2022/03/03 05:45:10;;;;;;;119.45;63.05;;;;;;;;;;4988825;28;20501;-83
2022/03/03 05:47:38;;;;;;;124.05;64.90;;;;;;;;;;4990078;28;20480;-84
2022/03/03 05:50:05;;;;;;;117.43;62.25;;;;;;;;;;4991001;28;20425;-83
2022/03/03 05:52:31;;;;;;;123.22;65.18;;;;;;;;;;4987380;28;20477;-83
2022/03/03 05:54:58;;;;;;;110.60;60.72;;;;;;;;;;4991212;28;20493;-83
2022/03/03 05:57:26;;;;;;;119.37;63.43;;;;;;;;;;4993766;28;20418;-84
2022/03/03 05:59:53;;;;;;;117.32;65.50;;;;;;;;;;4990489;28;20804;-82
2022/03/03 06:02:20;;;;;;;116.88;62.70;;;;;;;;;;4992122;28;20485;-83
2022/03/03 06:04:48;;;;;;;116.03;61.33;;;;;;;;;;4993673;28;20430;-83
2022/03/03 06:07:18;;;;;;;117.40;62.03;;;;;;;;;;4991051;28;20475;-83
2022/03/03 06:09:46;;;;;;;107.55;61.67;;;;;;;;;;4996620;28;20418;-83
2022/03/03 06:12:19;;;;;;;109.70;58.00;;;;;;;;;;4993488;28;20434;-83
2022/03/03 06:14:50;;;;;;;118.15;63.28;;;;;;;;;;4994502;28;20434;-82
2022/03/03 06:17:17;;;;;;;121.05;63.70;;;;;;;;;;4988166;28;20419;-83
2022/03/03 06:19:44;;;;;;;107.00;57.00;;;;;;;;;;4993014;28;20442;-82
2022/03/03 06:22:12;;;;;;;104.53;58.47;;;;;;;;;;4996753;28;20845;-84
2022/03/03 06:24:38;;;;;;;106.22;58.92;;;;;;;;;;4998230;28;20445;-84
2022/03/03 06:27:05;;;;;;;117.13;64.10;;;;;;;;;;5007094;23;20435;-82
2022/03/03 06:29:31;;;;;;;114.93;62.42;;;;;;;;;;5025146;28;20409;-85
2022/03/03 06:31:58;;;;;;;115.35;63.55;;;;;;;;;;5032239;28;20427;-82
2022/03/03 06:34:24;;;;;;;114.65;61.58;;;;;;;;;;5034665;28;20439;-83
2022/03/03 06:36:50;;;;;;;111.40;60.83;;;;;;;;;;5031453;28;20418;-82
2022/03/03 06:39:18;;;;;;;121.63;63.67;;;;;;;;;;5030624;28;20423;-82
2022/03/03 06:41:44;;;;;;;121.15;63.63;;;;;;;;;;5024995;28;20415;-82
2022/03/03 06:44:10;;;;;;;115.63;62.42;;;;;;;;;;5025045;28;20425;-82
2022/03/03 06:46:37;;;;;;;117.47;64.20;;;;;;;;;;5023103;28;20417;-83
2022/03/03 06:49:03;;;;;;;117.22;61.15;;;;;;;;;;5026163;28;20488;-84
2022/03/03 06:51:34;;;;;;;129.30;66.18;;;;;;;;;;5020844;28;20871;-83
2022/03/03 06:54:02;;;;;;;115.30;65.03;;;;;;;;;;5030424;28;20435;-83
2022/03/03 06:56:30;;;;;;;125.57;65.65;;;;;;;;;;5021333;28;20436;-82
2022/03/03 06:58:57;;;;;;;127.85;70.05;;;;;;;;;;5024286;28;20957;-81
2022/03/03 07:01:25;;;;;;;122.13;64.90;;;;;;;;;;5025705;28;20826;-83
2022/03/03 07:03:51;;;;;;;120.63;65.57;;;;;;;;;;5030953;28;20420;-82
2022/03/03 07:06:18;;;;;;;123.63;62.92;;;;;;;;;;5025124;28;20416;-81
2022/03/03 07:08:44;;;;;;;122.77;67.07;;;;;;;;;;5035743;28;20828;-83
2022/03/03 07:11:11;;;;;;;122.25;66.00;;;;;;;;;;5021036;28;20894;-83
2022/03/03 07:13:39;;;;;;;126.72;66.88;;;;;;;;;;5028827;28;20484;-84
2022/03/03 07:16:13;;;;;;;125.90;66.20;;;;;;;;;;5025184;28;20449;-85
2022/03/03 07:18:41;;;;;;;119.53;63.50;;;;;;;;;;5029523;28;20422;-83
2022/03/03 07:21:11;;;;;;;139.93;71.05;;;;;;;;;;5023364;28;20425;-85
2022/03/03 07:23:38;;;;;;;120.30;66.40;;;;;;;;;;5027399;28;20423;-84
2022/03/03 07:26:07;;;;;;;137.48;70.55;;;;;;;;;;5029794;28;20437;-83
2022/03/03 07:28:34;;;;;;;134.23;69.55;;;;;;;;;;5022890;28;20420;-83
2022/03/03 07:31:03;;;;;;;129.77;69.55;;;;;;;;;;5025993;28;20546;-83
2022/03/03 07:33:36;;;;;;;132.27;72.50;;;;;;;;;;5023193;28;20914;-84
2022/03/03 07:36:03;;;;;;;130.25;68.20;;;;;;;;;;5030773;28;20423;-83
2022/03/03 07:38:35;;;;;;;131.13;71.53;;;;;;;;;;5018088;28;20425;-84
2022/03/03 07:41:02;;;;;;;132.73;70.88;;;;;;;;;;5025483;28;20956;-85
2022/03/03 07:43:29;;;;;;;134.18;71.68;;;;;;;;;;5030769;28;20416;-84
2022/03/03 07:45:55;;;;;;;133.80;70.87;;;;;;;;;;5022233;28;20428;-85
2022/03/03 07:48:24;;;;;;;127.63;70.63;;;;;;;;;;5017203;28;20456;-85
2022/03/03 07:50:50;;;;;;;136.02;72.68;;;;;;;;;;5025464;28;20516;-84
2022/03/03 07:53:16;;;;;;;127.90;68.57;;;;;;;;;;5018654;28;20451;-85
2022/03/03 07:55:43;;;;;;;121.50;69.13;;;;;;;;;;5015580;28;20447;-84
2022/03/03 07:58:12;;;;;;;123.93;67.18;;;;;;;;;;5019124;28;20423;-86
2022/03/03 08:00:43;;;;;;;122.43;67.90;;;;;;;;;;5019700;28;20519;-85
2022/03/03 08:03:10;;;;;;;121.30;66.50;;;;;;;;;;5015584;28;20721;-85
2022/03/03 08:05:38;;;;;;;112.70;64.47;;;;;;;;;;5015124;28;20468;-84
2022/03/03 08:08:05;;;;;;;117.35;65.13;;;;;;;;;;5023293;28;20846;-86
2022/03/03 08:10:32;;;;;;;116.23;64.50;;;;;;;;;;5026902;28;20417;-85
2022/03/03 08:12:59;;;;;;;114.60;66.88;;;;;;;;;;5019089;28;21014;-86
2022/03/03 08:15:26;;;;;;;112.95;64.90;;;;;;;;;;5032893;28;20428;-83
2022/03/03 08:17:53;;;;;;;107.82;62.85;;;;;;;;;;5019606;28;20476;-83
2022/03/03 08:20:21;;;;;;;114.10;63.25;;;;;;;;;;5022548;28;20454;-82
2022/03/03 08:22:49;;;;;;;103.60;61.20;;;;;;;;;;5020502;28;20423;-83
2022/03/03 08:25:17;;;;;;;105.37;60.50;;;;;;;;;;5015456;28;20419;-83
2022/03/03 08:27:43;;;;;;;97.57;59.13;;;;;;;;;;5021507;28;20482;-82
2022/03/03 08:30:11;;;;;;;102.20;60.23;;;;;;;;;;5013625;28;21112;-84
2022/03/03 08:32:38;;;;;;;98.60;56.72;;;;;;;;;;5017645;28;20836;-83
2022/03/03 08:35:07;;;;;;;94.00;57.23;;;;;;;;;;5037886;28;20429;-83
2022/03/03 08:37:35;;;;;;;92.13;55.70;;;;;;;;;;5020316;28;20415;-85
2022/03/03 08:40:05;;;;;;;92.75;55.90;;;;;;;;;;5025844;28;20791;-85
2022/03/03 08:42:34;;;;;;;90.40;55.85;;;;;;;;;;5026679;28;20421;-83
2022/03/03 08:45:02;;;;;;;90.20;55.83;;;;;;;;;;5022385;28;20424;-83
2022/03/03 08:47:30;;;;;;;78.18;50.92;;;;;;;;;;5020749;28;20787;-83
2022/03/03 08:49:57;;;;;;;87.05;54.85;;;;;;;;;;5019656;28;20455;-83
2022/03/03 08:52:24;;;;;;;83.15;52.65;;;;;;;;;;5017792;28;20423;-84
2022/03/03 08:54:50;;;;;;;83.60;52.70;;;;;;;;;;5031624;28;20457;-83
2022/03/03 08:57:18;;;;;;;90.13;54.80;;;;;;;;;;5016565;28;20417;-84
2022/03/03 08:59:44;;;;;;;89.80;54.67;;;;;;;;;;5023228;28;20424;-84
2022/03/03 09:02:12;;;;;;;90.78;56.53;;;;;;;;;;5018908;28;20479;-85
2022/03/03 09:04:38;;;;;;;81.80;53.60;;;;;;;;;;5017167;28;20428;-83
2022/03/03 09:07:04;;;;;;;94.43;55.05;;;;;;;;;;5030654;28;20417;-85
2022/03/03 09:09:31;;;;;;;84.70;52.73;;;;;;;;;;5027920;28;20940;-84
2022/03/03 09:11:59;;;;;;;80.45;51.83;;;;;;;;;;5017370;28;20993;-82
2022/03/03 09:14:26;;;;;;;81.00;51.40;;;;;;;;;;5019825;28;20427;-85
2022/03/03 09:16:53;;;;;;;82.73;51.33;;;;;;;;;;5022572;28;20424;-85
2022/03/03 09:19:21;;;;;;;75.68;50.38;;;;;;;;;;5015593;28;20848;-86
2022/03/03 09:21:47;;;;;;;81.60;51.20;;;;;;;;;;5027974;28;20407;-85
2022/03/03 09:24:14;;;;;;;79.88;51.05;;;;;;;;;;5026386;28;20431;-85
2022/03/03 09:26:40;;;;;;;78.18;48.95;;;;;;;;;;5024076;28;20435;-85
2022/03/03 09:29:06;;;;;;;77.72;48.83;;;;;;;;;;5016947;28;20435;-84
2022/03/03 09:31:34;;;;;;;75.95;48.83;;;;;;;;;;5028666;28;20438;-85
2022/03/03 09:34:01;;;;;;;78.88;48.92;;;;;;;;;;5033446;28;20503;-82
2022/03/03 09:36:27;;;;;;;78.97;50.08;;;;;;;;;;5018352;28;20439;-84
2022/03/03 09:38:53;;;;;;;76.13;48.30;;;;;;;;;;5027365;28;20428;-84
2022/03/03 09:41:19;;;;;;;72.63;47.17;;;;;;;;;;5024593;28;20435;-83
2022/03/03 09:43:46;;;;;;;73.70;47.38;;;;;;;;;;5020784;28;20428;-84
2022/03/03 09:46:12;;;;;;;72.10;46.03;;;;;;;;;;5024614;28;20422;-86
2022/03/03 09:48:40;;;;;;;72.90;46.20;;;;;;;;;;5019884;28;20431;-84
2022/03/03 09:51:06;;;;;;;77.25;48.47;;;;;;;;;;5028921;28;20419;-85
2022/03/03 09:53:33;;;;;;;70.20;46.53;;;;;;;;;;5028881;28;20428;-84
2022/03/03 09:56:00;;;;;;;76.63;48.13;;;;;;;;;;5022458;28;20453;-83
2022/03/03 09:58:26;;;;;;;76.72;48.10;;;;;;;;;;5022425;28;20440;-83
2022/03/03 10:00:53;;;;;;;76.25;48.10;;;;;;;;;;5021000;28;20423;-85
2022/03/03 10:03:19;;;;;;;79.78;50.22;;;;;;;;;;5028719;28;20443;-85
2022/03/03 10:05:48;;;;;;;72.47;48.53;;;;;;;;;;5018009;28;20436;-85
2022/03/03 10:08:15;;;;;;;76.82;51.30;;;;;;;;;;5021975;28;20791;-84
2022/03/03 10:10:42;;;;;;;77.05;50.08;;;;;;;;;;5026795;28;20501;-84
2022/03/03 10:13:14;;;;;;;75.50;49.57;;;;;;;;;;5030932;28;20483;-85
2022/03/03 10:15:41;;;;;;;80.80;50.70;;;;;;;;;;5020284;28;20467;-86
2022/03/03 10:18:10;;;;;;;72.80;49.60;;;;;;;;;;5017555;28;20847;-85
2022/03/03 10:20:37;;;;;;;75.35;49.60;;;;;;;;;;5022363;28;20417;-84
2022/03/03 10:23:08;;;;;;;78.57;49.92;;;;;;;;;;5026283;28;20423;-84
2022/03/03 10:25:35;;;;;;;74.97;47.72;;;;;;;;;;5020344;28;20440;-84
2022/03/03 10:28:11;;;;;;;71.10;46.03;;;;;;;;;;5022845;28;20425;-84
2022/03/03 10:30:54;;;;;;;75.33;50.37;;;;;;;;;;5022043;28;20424;-86
2022/03/03 10:33:22;;;;;;;70.85;47.30;;;;;;;;;;5024121;28;20424;-84
2022/03/03 10:35:57;;;;;;;73.60;48.47;;;;;;;;;;5031407;28;20442;-84
2022/03/03 10:38:25;;;;;;;68.05;45.72;;;;;;;;;;5023965;28;20437;-86
2022/03/03 10:40:51;;;;;;;65.50;44.60;;;;;;;;;;5017644;28;20576;-82
2022/03/03 10:43:18;;;;;;;60.30;41.53;;;;;;;;;;5028212;28;20436;-83
2022/03/03 10:45:53;;;;;;;65.07;42.65;;;;;;;;;;5031428;28;20430;-83
2022/03/03 10:48:21;;;;;;;66.03;43.90;;;;;;;;;;5026108;28;20487;-84
2022/03/03 10:50:49;;;;;;;56.70;37.95;;;;;;;;;;5021624;28;20462;-85
2022/03/03 10:53:16;;;;;;;53.88;37.55;;;;;;;;;;5017365;28;20432;-83
2022/03/03 10:55:58;;;;;;;48.03;32.80;;;;;;;;;;5018949;28;20421;-82
2022/03/03 10:58:43;;;;;;;50.22;33.50;;;;;;;;;;5020948;28;20441;-83
2022/03/03 11:01:09;;;;;;;37.65;25.40;;;;;;;;;;5022577;28;20437;-83
2022/03/03 11:03:36;;;;;;;37.35;25.02;;;;;;;;;;5026184;28;20988;-82
2022/03/03 11:06:03;;;;;;;33.17;20.30;;;;;;;;;;5020845;28;20518;-85
2022/03/03 11:08:29;;;;;;;29.97;19.83;;;;;;;;;;5018933;28;20543;-84
2022/03/03 11:10:57;;;;;;;29.07;20.17;;;;;;;;;;5018639;28;20465;-81
2022/03/03 11:13:24;;;;;;;32.73;20.63;;;;;;;;;;5017916;28;20439;-83
2022/03/03 11:15:52;;;;;;;31.13;19.85;;;;;;;;;;5025635;28;20457;-83
2022/03/03 11:18:19;;;;;;;31.35;20.20;;;;;;;;;;5023755;28;20485;-86
2022/03/03 11:20:45;;;;;;;26.25;17.92;;;;;;;;;;5028099;28;20423;-84
2022/03/03 11:23:12;;;;;;;29.58;20.40;;;;;;;;;;5026183;28;20411;-84
2022/03/03 11:25:38;;;;;;;28.58;16.75;;;;;;;;;;5022702;28;20433;-84
2022/03/03 11:28:07;;;;;;;21.40;15.50;;;;;;;;;;5024363;28;20932;-83
2022/03/03 11:30:34;;;;;;;23.05;14.43;;;;;;;;;;5026672;28;20433;-84
2022/03/03 11:33:20;;;;;;;21.53;13.50;;;;;;;;;;5017688;28;20479;-83
2022/03/03 11:35:47;;;;;;;20.75;13.55;;;;;;;;;;5018502;28;20427;-84
2022/03/03 11:38:13;;;;;;;15.47;10.60;;;;;;;;;;5018803;28;20871;-84
2022/03/03 11:40:50;;;;;;;15.68;11.30;;;;;;;;;;5019281;28;20419;-86
2022/03/03 11:43:18;;;;;;;15.52;9.20;;;;;;;;;;5017436;28;20425;-84
2022/03/03 11:45:49;;;;;;;15.20;10.77;;;;;;;;;;5022584;28;20454;-84
2022/03/03 11:48:16;;;;;;;13.80;9.63;;;;;;;;;;5019273;28;20453;-86
2022/03/03 11:50:42;;;;;;;12.43;8.98;;;;;;;;;;5021144;28;20422;-84
2022/03/03 11:53:18;;;;;;;15.32;9.27;;;;;;;;;;5024288;28;20469;-86
2022/03/03 11:55:47;;;;;;;11.85;8.13;;;;;;;;;;5024116;28;20476;-83
2022/03/03 11:58:15;;;;;;;11.18;7.30;;;;;;;;;;5020665;28;20430;-85
2022/03/03 12:00:43;;;;;;;11.45;8.40;;;;;;;;;;5020690;28;20429;-84
2022/03/03 12:03:10;;;;;;;10.82;7.15;;;;;;;;;;5026783;28;21075;-83
2022/03/03 12:05:38;;;;;;;11.70;8.10;;;;;;;;;;5024176;28;20477;-84
2022/03/03 12:08:06;;;;;;;10.63;6.68;;;;;;;;;;5014540;28;20954;-84
2022/03/03 12:10:33;;;;;;;9.98;6.82;;;;;;;;;;5021058;28;20434;-84
2022/03/03 12:13:17;;;;;;;9.65;6.60;;;;;;;;;;5022250;28;20450;-83
2022/03/03 12:16:05;;;;;;;9.55;6.30;;;;;;;;;;5012957;28;20981;-83
2022/03/03 12:18:36;;;;;;;8.47;6.67;;;;;;;;;;5010887;28;20505;-86
2022/03/03 12:21:17;;;;;;;9.80;6.78;;;;;;;;;;5022753;28;20472;-83
2022/03/03 12:23:43;;;;;;;9.73;6.72;;;;;;;;;;5016280;28;20426;-83
2022/03/03 12:26:10;;;;;;;9.18;6.75;;;;;;;;;;5011923;28;20424;-83
2022/03/03 12:31:18;;;;;;;12.02;9.32;;;;;;;;;;5033999;28;20439;-80
2022/03/03 12:33:56;;;;;;;12.75;10.00;;;;;;;;;;5034591;28;20423;-81
2022/03/03 12:36:22;;;;;;;14.07;10.30;;;;;;;;;;5036499;28;20427;-79
2022/03/03 12:38:48;;;;;;;14.85;10.95;;;;;;;;;;5030510;28;20431;-81
2022/03/03 12:41:15;;;;;;;17.10;11.90;;;;;;;;;;5036531;28;20440;-82
2022/03/03 12:43:41;;;;;;;14.35;10.70;;;;;;;;;;5048484;28;20840;-81
2022/03/03 12:46:08;;;;;;;18.10;13.02;;;;;;;;;;5051567;28;20424;-81
2022/03/03 12:48:35;;;;;;;18.75;12.35;;;;;;;;;;5053851;28;20460;-81
2022/03/03 12:51:03;;;;;;;19.45;14.07;;;;;;;;;;5058469;28;20419;-81
2022/03/03 12:53:34;;;;;;;22.73;15.07;;;;;;;;;;5038917;28;20438;-82
2022/03/03 12:56:00;;;;;;;19.63;14.77;;;;;;;;;;5040494;28;20438;-82
2022/03/03 12:58:30;;;;;;;19.67;14.10;;;;;;;;;;5030983;28;20422;-82
2022/03/03 13:00:56;;;;;;;17.73;13.00;;;;;;;;;;5032196;28;20431;-82
2022/03/03 13:03:23;;;;;;;17.65;12.15;;;;;;;;;;5032447;28;21088;-82
2022/03/03 13:05:50;;;;;;;18.13;13.52;;;;;;;;;;5024958;28;20420;-81
2022/03/03 13:08:22;;;;;;;18.70;13.50;;;;;;;;;;5047792;28;20428;-82
2022/03/03 13:10:49;;;;;;;22.98;14.20;;;;;;;;;;5053079;28;21010;-82
2022/03/03 13:13:15;;;;;;;21.80;14.25;;;;;;;;;;5040653;28;20415;-82
2022/03/03 13:15:43;;;;;;;20.13;13.95;;;;;;;;;;5037999;28;20419;-81
2022/03/03 13:18:11;;;;;;;20.60;14.25;;;;;;;;;;5034821;28;20451;-81
2022/03/03 13:20:38;;;;;;;20.10;13.20;;;;;;;;;;5037913;28;20978;-82
2022/03/03 13:23:05;;;;;;;20.27;11.70;;;;;;;;;;5035050;28;20418;-81
2022/03/03 13:25:33;;;;;;;21.00;13.25;;;;;;;;;;5039119;28;20426;-82
2022/03/03 13:27:59;;;;;;;22.70;14.27;;;;;;;;;;5042372;28;20791;-78
2022/03/03 13:30:26;;;;;;;24.10;15.00;;;;;;;;;;5050639;28;20429;-81
2022/03/03 13:32:53;;;;;;;22.90;13.50;;;;;;;;;;5051541;28;20494;-81
2022/03/03 13:35:20;;;;;;;22.63;13.35;;;;;;;;;;5053444;28;20424;-81
2022/03/03 13:37:46;;;;;;;25.77;15.33;;;;;;;;;;5043424;28;20426;-81
2022/03/03 13:40:13;;;;;;;28.70;17.20;;;;;;;;;;5047356;28;20471;-81
2022/03/03 13:42:42;;;;;;;27.90;16.65;;;;;;;;;;5051357;28;20784;-81
2022/03/03 13:45:09;;;;;;;27.65;16.52;;;;;;;;;;5055033;28;20807;-81
2022/03/03 13:47:39;;;;;;;27.42;16.02;;;;;;;;;;5049596;28;20415;-81
2022/03/03 13:50:07;;;;;;;28.83;16.55;;;;;;;;;;5054221;28;20423;-81
2022/03/03 13:52:34;;;;;;;28.67;17.80;;;;;;;;;;5054062;28;20437;-81
2022/03/03 13:55:02;;;;;;;25.20;16.07;;;;;;;;;;5052877;28;20484;-80
2022/03/03 13:57:32;;;;;;;22.98;14.20;;;;;;;;;;5058890;28;20572;-81
2022/03/03 14:00:00;;;;;;;24.40;14.75;;;;;;;;;;5052892;28;20435;-82
2022/03/03 14:02:27;;;;;;;23.40;14.97;;;;;;;;;;5046407;28;20785;-82
2022/03/03 14:04:59;;;;;;;23.50;14.65;;;;;;;;;;5046487;28;20413;-82
2022/03/03 14:07:26;;;;;;;24.20;14.05;;;;;;;;;;5062354;28;20832;-81
2022/03/03 14:09:55;;;;;;;25.13;13.85;;;;;;;;;;5057214;28;20464;-81
2022/03/03 14:12:22;;;;;;;23.25;14.95;;;;;;;;;;5040706;28;20422;-80
2022/03/03 14:14:48;;;;;;;22.83;13.83;;;;;;;;;;5037967;28;20435;-82
2022/03/03 14:17:16;;;;;;;20.13;12.80;;;;;;;;;;5039571;28;20456;-82